Time;durP1;ratioP1;P1;durP2;ratioP2;P2;SDS_P1;SDS_P2;PMS_P1;PMS_P2;Temp;Humidity;BMP_temperature;BMP_pressure;BME280_temperature;BME280_humidity;BME280_pressure;Samples;Min_cycle;Max_cycle;Signal;HPM_P1;HPM_P2
2022/01/26 00:07:14;;;;;;;68.90;42.55;;;3.60;99.90;;;;;;5054110;27;88575;-30
2022/01/26 00:09:40;;;;;;;79.95;47.72;;;3.50;99.90;;;;;;5053510;27;89110;-31
2022/01/26 00:12:06;;;;;;;82.40;50.38;;;3.50;99.90;;;;;;5053204;27;89988;-30
2022/01/26 00:14:32;;;;;;;76.75;48.83;;;3.50;99.90;;;;;;5053182;27;88640;-33
2022/01/26 00:17:00;;;;;;;76.00;47.15;;;3.50;99.90;;;;;;5052436;27;88057;-31
2022/01/26 00:19:32;;;;;;;71.13;45.45;;;3.50;99.90;;;;;;5053415;27;88938;-33
2022/01/26 00:21:58;;;;;;;83.00;50.05;;;3.50;99.90;;;;;;5034953;27;89826;-30
2022/01/26 00:29:20;;;;;;;80.80;47.75;;;3.50;99.90;;;;;;5053610;27;90361;-31
2022/01/26 00:40:17;;;;;;;76.88;48.53;;;3.40;99.90;;;;;;5052952;27;88878;-33
2022/01/26 00:42:45;;;;;;;75.72;48.17;;;3.40;99.90;;;;;;5054405;27;91078;-31
2022/01/26 00:45:11;;;;;;;72.43;47.85;;;3.40;99.90;;;;;;5056891;27;90143;-31
2022/01/26 00:47:37;;;;;;;76.57;48.17;;;3.40;99.90;;;;;;5056628;27;87651;-30
2022/01/26 00:50:07;;;;;;;75.93;48.00;;;3.40;99.90;;;;;;5056670;27;90632;-30
2022/01/26 00:55:06;;;;;;;73.40;48.65;;;3.30;99.90;;;;;;5056510;27;89580;-32
2022/01/26 00:57:32;;;;;;;77.30;47.97;;;3.30;99.90;;;;;;5057039;27;87867;-31
2022/01/26 00:59:59;;;;;;;83.70;48.22;;;3.30;99.90;;;;;;5056461;27;89976;-30
2022/01/26 01:02:25;;;;;;;77.72;45.72;;;3.30;99.90;;;;;;5056318;27;90743;-33
2022/01/26 01:04:50;;;;;;;74.82;51.08;;;3.30;99.90;;;;;;5056207;27;89527;-32
2022/01/26 01:07:20;;;;;;;83.78;49.80;;;3.30;99.90;;;;;;5056276;27;88428;-32
2022/01/26 01:09:46;;;;;;;90.90;50.33;;;3.30;99.90;;;;;;5055989;27;90299;-38
2022/01/26 01:12:12;;;;;;;97.28;53.00;;;3.30;99.90;;;;;;5056223;27;89540;-30
2022/01/26 01:14:40;;;;;;;83.15;51.35;;;3.30;99.90;;;;;;5055826;27;89877;-29
2022/01/26 01:17:09;;;;;;;79.60;50.13;;;3.30;99.90;;;;;;5056511;27;88602;-29
2022/01/26 01:19:41;;;;;;;88.80;51.67;;;3.30;99.90;;;;;;5055719;27;90613;-34
2022/01/26 01:25:11;;;;;;;75.50;47.67;;;3.30;99.90;;;;;;5056472;27;89880;-29
2022/01/26 01:28:00;;;;;;;78.45;48.45;;;3.30;99.90;;;;;;5056776;27;87904;-31
2022/01/26 01:30:35;;;;;;;79.60;49.30;;;3.20;99.90;;;;;;5056380;27;90463;-31
2022/01/26 01:33:06;;;;;;;72.97;47.33;;;3.20;99.90;;;;;;5055512;27;90618;-30
2022/01/26 01:35:36;;;;;;;76.35;48.58;;;3.20;99.90;;;;;;5037940;27;90971;-31
2022/01/26 01:38:09;;;;;;;77.68;46.80;;;3.20;99.90;;;;;;5055997;27;87650;-32
2022/01/26 01:40:36;;;;;;;84.32;50.33;;;3.10;99.90;;;;;;5056166;27;90977;-29
2022/01/26 01:43:03;;;;;;;70.88;45.17;;;3.10;99.90;;;;;;5055856;27;91279;-30
2022/01/26 01:45:44;;;;;;;81.00;50.13;;;3.10;99.90;;;;;;5055884;27;89345;-31
2022/01/26 01:48:17;;;;;;;79.50;50.58;;;3.10;99.90;;;;;;5055320;27;88249;-31
2022/01/26 01:50:43;;;;;;;85.40;52.97;;;3.10;99.90;;;;;;5056476;27;89078;-31
2022/01/26 01:53:10;;;;;;;86.45;49.88;;;3.10;99.90;;;;;;5055368;27;89771;-31
2022/01/26 01:55:40;;;;;;;76.53;47.83;;;3.10;99.90;;;;;;5055818;27;89607;-30
2022/01/26 01:58:06;;;;;;;78.90;47.03;;;3.10;99.90;;;;;;5037213;27;88028;-32
2022/01/26 02:00:31;;;;;;;83.32;49.58;;;3.10;99.90;;;;;;5055343;27;90737;-29
2022/01/26 02:02:57;;;;;;;78.05;46.20;;;3.10;99.90;;;;;;5055381;27;89417;-31
2022/01/26 02:05:23;;;;;;;82.43;47.58;;;3.10;99.90;;;;;;5055253;27;89608;-32
2022/01/26 02:07:49;;;;;;;76.55;49.15;;;3.10;99.90;;;;;;5055970;27;88035;-34
2022/01/26 02:10:15;;;;;;;76.97;46.38;;;3.10;99.90;;;;;;5037611;27;90250;-32
2022/01/26 02:12:46;;;;;;;73.95;44.45;;;3.10;99.90;;;;;;5055655;27;89766;-29
2022/01/26 02:15:14;;;;;;;86.10;47.72;;;3.00;99.90;;;;;;5055409;27;89685;-33
2022/01/26 02:18:12;;;;;;;73.80;45.45;;;3.10;99.90;;;;;;5055993;27;87549;-31
2022/01/26 02:56:07;;;;;;;74.35;48.60;;;3.00;99.90;;;;;;5054416;27;90060;-30
2022/01/26 02:59:00;;;;;;;80.13;50.15;;;2.90;99.90;;;;;;5055096;27;89551;-30
2022/01/26 03:01:42;;;;;;;83.93;51.03;;;2.90;99.90;;;;;;5054645;27;87625;-30
2022/01/26 03:06:50;;;;;;;79.10;50.33;;;2.90;99.90;;;;;;5054341;27;89925;-30
2022/01/26 03:09:21;;;;;;;90.00;50.17;;;2.90;99.90;;;;;;5054505;27;89572;-31
2022/01/26 03:11:48;;;;;;;76.15;46.70;;;2.90;99.90;;;;;;5036654;27;87841;-32
2022/01/26 03:15:18;;;;;;;71.40;48.65;;;2.90;99.90;;;;;;5054590;27;90538;-30
2022/01/26 03:19:50;;;;;;;79.35;50.42;;;2.80;99.90;;;;;;5054731;27;90170;-29
2022/01/26 03:30:36;;;;;;;84.80;48.60;;;2.80;99.90;;;;;;5054376;27;89708;-29
2022/01/26 03:33:46;;;;;;;86.55;47.38;;;2.80;99.90;;;;;;5054130;27;87677;-30
2022/01/26 03:35:51;;;;;;;85.07;51.28;;;2.90;99.90;;;;;;5053521;27;90059;-31
2022/01/26 03:38:38;;;;;;;84.40;48.38;;;2.90;99.90;;;;;;5053520;27;89822;-31
2022/01/26 03:41:28;;;;;;;80.05;52.13;;;2.80;99.90;;;;;;5053858;27;88505;-33
2022/01/26 03:43:53;;;;;;;76.75;48.38;;;2.80;99.90;;;;;;5054197;27;89446;-31
2022/01/26 03:46:19;;;;;;;82.85;47.75;;;2.80;99.90;;;;;;5053658;27;90246;-32
2022/01/26 03:48:44;;;;;;;79.20;47.13;;;2.80;99.90;;;;;;5054032;27;89427;-30
2022/01/26 03:51:10;;;;;;;87.95;50.95;;;2.70;99.90;;;;;;5053774;27;89401;-30
2022/01/26 03:53:35;;;;;;;83.35;50.47;;;2.70;99.90;;;;;;5054017;27;88002;-31
2022/01/26 03:56:01;;;;;;;78.85;44.92;;;2.70;99.90;;;;;;5053555;27;90307;-31
2022/01/26 03:58:27;;;;;;;84.18;48.90;;;2.70;99.90;;;;;;5053617;27;89631;-34
2022/01/26 04:00:52;;;;;;;78.90;51.25;;;2.70;99.90;;;;;;5053822;27;89843;-30
2022/01/26 04:03:18;;;;;;;80.78;48.25;;;2.70;99.90;;;;;;5053471;27;87778;-31
2022/01/26 04:05:44;;;;;;;83.63;48.95;;;2.70;99.90;;;;;;5053711;27;90323;-30
2022/01/26 04:08:16;;;;;;;80.95;47.95;;;2.70;99.90;;;;;;5053036;27;90145;-32
2022/01/26 04:13:16;;;;;;;76.72;48.25;;;2.70;99.90;;;;;;5053536;27;88672;-31
2022/01/26 04:15:42;;;;;;;86.60;48.50;;;2.60;99.90;;;;;;5053513;27;90183;-30
2022/01/26 04:18:12;;;;;;;85.15;47.05;;;2.60;99.90;;;;;;5035277;27;90835;-31
2022/01/26 04:20:42;;;;;;;84.55;49.47;;;2.60;99.90;;;;;;5053753;27;89180;-30
2022/01/26 04:23:13;;;;;;;73.05;44.28;;;2.60;99.90;;;;;;5053183;27;87693;-34
2022/01/26 04:25:41;;;;;;;87.78;49.17;;;2.60;99.90;;;;;;5053872;27;90685;-33
2022/01/26 04:28:11;;;;;;;87.32;50.72;;;2.60;99.90;;;;;;5053345;27;89137;-31
2022/01/26 04:30:37;;;;;;;84.63;48.60;;;2.60;99.90;;;;;;5053525;27;90895;-32
2022/01/26 04:33:05;;;;;;;85.50;49.70;;;2.60;99.90;;;;;;5052635;27;88403;-30
2022/01/26 04:35:32;;;;;;;90.60;50.13;;;2.60;99.90;;;;;;5052980;27;90120;-35
2022/01/26 04:40:41;;;;;;;80.97;47.43;;;2.60;99.90;;;;;;5053095;27;89436;-33
2022/01/26 04:43:14;;;;;;;83.43;48.03;;;2.60;99.90;;;;;;5053057;27;87972;-32
2022/01/26 04:45:40;;;;;;;81.95;46.25;;;2.60;99.90;;;;;;5035038;27;90373;-30
2022/01/26 04:48:06;;;;;;;72.65;46.65;;;2.60;99.90;;;;;;5053182;27;88520;-31
2022/01/26 04:50:31;;;;;;;84.78;49.70;;;2.60;99.90;;;;;;5053133;27;90082;-30
2022/01/26 04:52:57;;;;;;;80.43;48.83;;;2.60;99.90;;;;;;5053357;27;87633;-30
2022/01/26 04:55:22;;;;;;;90.05;51.10;;;2.60;99.90;;;;;;5052723;27;91264;-33
2022/01/26 04:57:48;;;;;;;85.13;49.03;;;2.60;99.90;;;;;;5052942;27;90848;-30
2022/01/26 05:00:14;;;;;;;86.10;48.47;;;2.50;99.90;;;;;;5052595;27;90609;-32
2022/01/26 05:02:39;;;;;;;87.78;46.92;;;2.50;99.90;;;;;;5053250;27;87645;-31
2022/01/26 05:05:05;;;;;;;84.18;50.60;;;2.50;99.90;;;;;;5052576;27;90397;-30
2022/01/26 05:07:31;;;;;;;81.15;46.92;;;2.50;99.90;;;;;;5052727;27;90146;-32
2022/01/26 05:09:56;;;;;;;78.85;44.13;;;2.50;99.90;;;;;;5053024;27;89521;-31
2022/01/26 05:12:23;;;;;;;79.05;47.85;;;2.50;99.90;;;;;;5052462;27;87680;-31
2022/01/26 05:14:49;;;;;;;81.78;45.83;;;2.50;99.90;;;;;;5053379;27;90632;-30
2022/01/26 05:17:19;;;;;;;86.90;47.45;;;2.50;99.90;;;;;;5052273;27;89760;-32
2022/01/26 05:19:44;;;;;;;78.25;42.58;;;2.40;99.90;;;;;;5053051;27;89315;-30
2022/01/26 05:22:10;;;;;;;80.40;45.05;;;2.50;99.90;;;;;;5051926;27;88509;-30
2022/01/26 05:24:35;;;;;;;76.05;43.88;;;2.40;99.90;;;;;;5052829;27;90918;-30
2022/01/26 05:27:01;;;;;;;81.65;48.05;;;2.50;99.90;;;;;;5051116;27;89674;-29
2022/01/26 05:29:26;;;;;;;71.70;42.30;;;2.50;99.90;;;;;;5053071;27;89647;-33
2022/01/26 05:31:52;;;;;;;81.05;47.92;;;2.50;99.90;;;;;;5053887;27;87975;-32
2022/01/26 05:34:18;;;;;;;81.93;45.88;;;2.40;99.90;;;;;;5053203;27;90763;-31
2022/01/26 05:36:43;;;;;;;77.03;44.13;;;2.40;99.90;;;;;;5053514;27;89799;-29
2022/01/26 05:39:09;;;;;;;82.38;47.33;;;2.40;99.90;;;;;;5053788;27;89515;-30
2022/01/26 05:41:34;;;;;;;80.75;43.05;;;2.40;99.90;;;;;;5053968;27;89734;-35
2022/01/26 05:44:00;;;;;;;72.25;43.28;;;2.40;99.90;;;;;;5053448;27;90689;-30
2022/01/26 05:46:34;;;;;;;81.95;43.75;;;2.40;99.90;;;;;;5052759;27;89057;-30
2022/01/26 05:48:59;;;;;;;82.07;44.28;;;2.40;99.90;;;;;;5052946;27;90689;-33
2022/01/26 05:51:26;;;;;;;67.38;42.88;;;2.40;99.90;;;;;;5053462;27;88064;-31
2022/01/26 05:53:52;;;;;;;72.22;41.85;;;2.40;99.90;;;;;;5053423;27;90038;-31
2022/01/26 05:56:18;;;;;;;76.13;43.30;;;2.40;99.90;;;;;;5053472;27;88828;-30
2022/01/26 05:58:43;;;;;;;81.90;44.05;;;2.40;99.90;;;;;;5035437;27;90744;-30
2022/01/26 06:01:11;;;;;;;65.75;40.40;;;2.40;99.90;;;;;;5053683;27;87839;-30
2022/01/26 06:03:37;;;;;;;79.90;41.65;;;2.40;99.90;;;;;;5055448;27;89047;-32
2022/01/26 06:06:03;;;;;;;78.38;42.30;;;2.40;99.90;;;;;;5055409;27;89554;-33
2022/01/26 06:08:29;;;;;;;79.00;42.63;;;2.40;99.90;;;;;;5054882;27;89324;-30
2022/01/26 06:10:59;;;;;;;68.60;40.38;;;2.40;99.90;;;;;;5035869;27;88369;-35
2022/01/26 06:13:25;;;;;;;72.38;41.83;;;2.40;99.90;;;;;;5054596;27;91107;-29
2022/01/26 06:15:51;;;;;;;71.25;42.08;;;2.40;99.90;;;;;;5051555;27;88672;-34
2022/01/26 06:18:17;;;;;;;76.68;40.85;;;2.40;99.90;;;;;;5054349;27;89348;-29
2022/01/26 06:20:43;;;;;;;69.15;38.55;;;2.40;99.90;;;;;;5053904;27;87494;-30
2022/01/26 06:23:09;;;;;;;65.22;40.13;;;2.40;99.90;;;;;;5055007;27;90157;-31
2022/01/26 06:25:34;;;;;;;69.25;41.13;;;2.40;99.90;;;;;;5030790;27;89814;-31
2022/01/26 06:28:05;;;;;;;65.10;36.05;;;2.40;99.90;;;;;;5047552;27;89700;-36
2022/01/26 06:30:31;;;;;;;63.83;38.08;;;2.50;99.90;;;;;;5049332;27;88444;-32
2022/01/26 06:32:57;;;;;;;59.15;35.55;;;2.50;99.90;;;;;;5062096;27;89837;-32
2022/01/26 06:35:23;;;;;;;74.22;38.25;;;2.50;99.90;;;;;;5064385;27;90366;-32
2022/01/26 06:37:49;;;;;;;69.30;38.97;;;2.50;99.90;;;;;;5048907;27;90170;-31
2022/01/26 06:40:14;;;;;;;72.93;40.58;;;2.50;99.90;;;;;;5048427;27;89050;-32
2022/01/26 06:42:52;;;;;;;74.00;41.08;;;2.40;99.90;;;;;;5048118;27;90817;-31
2022/01/26 06:45:21;;;;;;;75.43;39.22;;;2.50;99.90;;;;;;5063070;27;88707;-31
2022/01/26 06:50:31;;;;;;;67.68;36.63;;;2.50;99.90;;;;;;5049792;27;88121;-30
2022/01/26 06:52:57;;;;;;;75.28;38.58;;;2.50;99.90;;;;;;5049446;27;89567;-33
2022/01/26 06:55:22;;;;;;;60.70;37.67;;;2.50;99.90;;;;;;5049309;27;88157;-33
2022/01/26 06:57:48;;;;;;;70.57;36.13;;;2.50;99.90;;;;;;5049407;27;90603;-29
2022/01/26 07:00:14;;;;;;;74.82;41.63;;;2.50;99.90;;;;;;5048894;27;88501;-31
2022/01/26 07:02:40;;;;;;;72.05;38.78;;;2.50;99.90;;;;;;5048194;27;90194;-30
2022/01/26 07:05:07;;;;;;;66.97;38.25;;;2.50;99.90;;;;;;5048595;27;89667;-31
2022/01/26 07:07:33;;;;;;;58.33;36.63;;;2.60;99.90;;;;;;5049356;27;91188;-31
2022/01/26 07:09:59;;;;;;;61.75;36.13;;;2.60;99.90;;;;;;5049652;27;88648;-31
2022/01/26 07:12:24;;;;;;;67.93;36.65;;;2.60;99.90;;;;;;5048863;27;90669;-31
2022/01/26 07:23:03;;;;;;;64.03;33.67;;;2.60;99.90;;;;;;5044992;27;90477;-38
2022/01/26 07:25:29;;;;;;;53.33;32.78;;;2.60;99.90;;;;;;5029494;27;90516;-33
2022/01/26 07:27:56;;;;;;;64.95;35.90;;;2.60;99.90;;;;;;5031200;27;90919;-31
2022/01/26 07:30:22;;;;;;;67.63;36.72;;;2.70;99.90;;;;;;5039672;27;89409;-31
2022/01/26 07:32:48;;;;;;;61.45;35.78;;;2.70;99.90;;;;;;5028482;28;88607;-33
2022/01/26 07:35:13;;;;;;;69.05;34.35;;;2.70;99.90;;;;;;5027880;28;89788;-31
2022/01/26 07:37:39;;;;;;;61.05;36.55;;;2.70;99.90;;;;;;4952855;27;89590;-32
2022/01/26 07:40:09;;;;;;;69.55;34.65;;;2.70;99.90;;;;;;5033136;27;87789;-32
2022/01/26 07:42:35;;;;;;;65.57;35.33;;;2.70;99.90;;;;;;5035368;27;90410;-32
2022/01/26 07:45:06;;;;;;;61.60;34.47;;;2.80;99.90;;;;;;5042927;27;89721;-33
2022/01/26 07:47:33;;;;;;;60.95;37.40;;;2.80;99.90;;;;;;5065654;27;91101;-31
2022/01/26 07:49:59;;;;;;;68.13;36.92;;;2.80;99.90;;;;;;5050647;27;88847;-33
2022/01/26 07:52:27;;;;;;;66.80;38.03;;;2.80;99.90;;;;;;5047177;27;90372;-30
2022/01/26 07:54:53;;;;;;;65.03;37.92;;;2.70;99.90;;;;;;5048811;27;90611;-33
2022/01/26 07:57:20;;;;;;;61.38;34.17;;;2.70;99.90;;;;;;5002122;27;89732;-33
2022/01/26 07:59:48;;;;;;;70.22;38.47;;;2.70;99.90;;;;;;5033334;27;87748;-31
2022/01/26 08:02:14;;;;;;;68.47;39.45;;;2.70;99.90;;;;;;5047696;27;89208;-32
2022/01/26 08:04:39;;;;;;;59.05;37.50;;;2.70;99.90;;;;;;5048311;27;89576;-30
2022/01/26 08:07:05;;;;;;;61.42;38.83;;;2.80;99.90;;;;;;5048568;27;89406;-31
2022/01/26 08:09:31;;;;;;;65.07;39.72;;;2.80;99.90;;;;;;5048940;27;88387;-33
2022/01/26 08:11:56;;;;;;;65.57;41.28;;;2.90;99.90;;;;;;5057898;27;90335;-32
2022/01/26 08:14:22;;;;;;;64.57;38.97;;;2.90;99.90;;;;;;5067995;27;90482;-33
2022/01/26 08:16:48;;;;;;;64.53;42.22;;;2.90;99.90;;;;;;5068095;27;91317;-30
2022/01/26 08:19:14;;;;;;;67.57;41.72;;;2.90;99.90;;;;;;5064922;27;88007;-30
2022/01/26 08:21:41;;;;;;;69.60;40.60;;;2.80;99.90;;;;;;5047322;27;90698;-30
2022/01/26 08:24:13;;;;;;;77.20;42.58;;;2.90;99.90;;;;;;5049896;27;89645;-34
2022/01/26 08:26:44;;;;;;;73.50;42.25;;;2.90;99.90;;;;;;5032932;28;89599;-33
2022/01/26 08:29:17;;;;;;;76.40;45.45;;;2.90;99.90;;;;;;5044179;27;87575;-32
2022/01/26 08:31:43;;;;;;;69.35;41.70;;;2.90;99.90;;;;;;5052731;27;90417;-36
2022/01/26 08:34:09;;;;;;;77.47;46.70;;;3.00;99.90;;;;;;5052423;27;89853;-32
2022/01/26 08:36:34;;;;;;;72.88;45.85;;;3.00;99.90;;;;;;5050699;27;89967;-33
2022/01/26 08:39:00;;;;;;;78.30;46.25;;;3.00;99.90;;;;;;5044513;27;88118;-33
2022/01/26 08:41:26;;;;;;;76.80;49.60;;;3.00;99.90;;;;;;5041304;27;90413;-31
2022/01/26 08:43:51;;;;;;;85.47;51.92;;;3.00;99.90;;;;;;5041387;27;90308;-31
2022/01/26 08:46:18;;;;;;;84.85;54.08;;;3.00;99.90;;;;;;5038610;27;89759;-31
2022/01/26 08:48:44;;;;;;;88.57;53.60;;;3.00;99.90;;;;;;5049215;27;87646;-32
2022/01/26 08:51:09;;;;;;;83.93;53.95;;;3.00;99.90;;;;;;5047878;27;90569;-29
2022/01/26 08:53:35;;;;;;;80.28;53.08;;;3.00;99.90;;;;;;5022819;27;89750;-32
2022/01/26 08:56:00;;;;;;;85.90;54.70;;;3.00;99.90;;;;;;5034857;27;89266;-30
2022/01/26 08:58:26;;;;;;;94.82;58.22;;;3.10;99.90;;;;;;5033042;28;87677;-34
2022/01/26 09:00:53;;;;;;;86.07;53.45;;;3.10;99.90;;;;;;5032649;28;90134;-33
2022/01/26 09:03:18;;;;;;;89.20;57.72;;;3.00;99.90;;;;;;5032701;28;90843;-31
2022/01/26 09:05:44;;;;;;;86.55;55.45;;;3.00;99.90;;;;;;5035367;28;90347;-33
2022/01/26 09:08:09;;;;;;;92.25;56.88;;;3.10;99.90;;;;;;5036292;28;88591;-32
2022/01/26 09:10:37;;;;;;;90.75;56.72;;;3.10;99.90;;;;;;5017676;28;90099;-32
2022/01/26 09:13:03;;;;;;;102.43;62.70;;;3.10;99.90;;;;;;5036058;28;89436;-34
2022/01/26 09:15:30;;;;;;;94.07;60.50;;;3.10;99.90;;;;;;5035650;28;89224;-34
2022/01/26 09:17:58;;;;;;;90.95;59.28;;;3.10;99.90;;;;;;5017761;28;87816;-33
2022/01/26 09:20:24;;;;;;;106.82;64.00;;;3.10;99.90;;;;;;5035427;28;90143;-30
2022/01/26 09:22:49;;;;;;;100.43;63.58;;;3.10;99.90;;;;;;5035322;28;89785;-30
2022/01/26 09:25:15;;;;;;;94.53;62.58;;;3.10;99.90;;;;;;5035113;28;89724;-33
2022/01/26 09:27:41;;;;;;;91.80;62.67;;;3.10;99.90;;;;;;5031846;28;88041;-30
2022/01/26 09:30:08;;;;;;;105.53;63.63;;;3.20;99.90;;;;;;5036046;28;90373;-31
2022/01/26 09:32:33;;;;;;;104.65;66.78;;;3.20;99.90;;;;;;5035780;28;89889;-34
2022/01/26 09:34:59;;;;;;;108.68;66.22;;;3.20;99.90;;;;;;5033791;28;89537;-32
2022/01/26 09:37:27;;;;;;;105.03;65.50;;;3.20;99.90;;;;;;5035829;28;87916;-31
2022/01/26 09:39:54;;;;;;;100.88;63.97;;;3.20;99.90;;;;;;5036037;28;90260;-31
2022/01/26 09:42:20;;;;;;;104.72;62.63;;;3.20;99.90;;;;;;5035323;28;88273;-31
2022/01/26 09:44:46;;;;;;;107.70;65.85;;;3.20;99.90;;;;;;5035884;28;89578;-31
2022/01/26 09:47:12;;;;;;;108.13;66.90;;;3.20;99.90;;;;;;5035090;28;87671;-33
2022/01/26 09:49:39;;;;;;;108.82;71.13;;;3.20;99.90;;;;;;5035432;28;90425;-30
2022/01/26 09:52:20;;;;;;;112.80;67.18;;;3.30;99.90;;;;;;5035656;28;91220;-31
2022/01/26 09:54:45;;;;;;;106.20;66.60;;;3.20;99.90;;;;;;5035977;28;89766;-31
2022/01/26 09:57:11;;;;;;;114.03;70.28;;;3.30;99.90;;;;;;5035267;28;87723;-31
2022/01/26 09:59:37;;;;;;;119.03;70.40;;;3.30;99.90;;;;;;5017455;28;90153;-29
2022/01/26 10:02:03;;;;;;;118.72;71.55;;;3.30;99.90;;;;;;5035518;28;89622;-33
2022/01/26 10:04:39;;;;;;;119.30;72.30;;;3.30;99.90;;;;;;5034993;28;88173;-32
2022/01/26 10:07:29;;;;;;;111.40;69.45;;;3.30;99.90;;;;;;5035615;28;87614;-30
2022/01/26 10:15:56;;;;;;;119.03;72.85;;;3.40;99.90;;;;;;5035179;28;89885;-31
2022/01/26 10:18:13;;;;;;;127.75;76.95;;;3.50;99.90;;;;;;5030973;28;88377;-32
2022/01/26 10:20:46;;;;;;;118.22;77.70;;;3.50;99.90;;;;;;5035021;28;90259;-34
2022/01/26 10:23:18;;;;;;;115.15;71.90;;;3.50;99.90;;;;;;5034713;28;90077;-31
2022/01/26 10:25:47;;;;;;;125.90;75.22;;;3.60;99.90;;;;;;5035269;28;89117;-30
2022/01/26 10:28:16;;;;;;;121.75;73.82;;;3.60;99.90;;;;;;5032711;28;87632;-32
2022/01/26 10:30:48;;;;;;;119.45;77.35;;;3.60;99.90;;;;;;5035393;28;90474;-32
2022/01/26 10:33:16;;;;;;;122.03;73.75;;;3.60;99.90;;;;;;5034758;28;90242;-31
2022/01/26 10:35:42;;;;;;;111.80;76.13;;;3.60;99.90;;;;;;5034621;28;89652;-30
2022/01/26 10:38:07;;;;;;;119.00;76.15;;;3.70;99.90;;;;;;5034875;28;87990;-29
2022/01/26 10:40:35;;;;;;;118.78;74.28;;;3.70;99.90;;;;;;5034888;28;90292;-29
2022/01/26 10:43:11;;;;;;;120.95;75.57;;;3.70;99.90;;;;;;5033732;28;90390;-31
2022/01/26 10:45:51;;;;;;;121.07;73.13;;;3.70;99.90;;;;;;5034936;28;92153;-32
2022/01/26 10:53:39;;;;;;;121.95;72.10;;;3.80;99.90;;;;;;5034599;28;88727;-31
2022/01/26 10:56:05;;;;;;;124.50;73.25;;;3.90;99.90;;;;;;5034087;28;89812;-30
2022/01/26 10:58:32;;;;;;;122.30;72.45;;;3.90;99.90;;;;;;5034337;28;87677;-33
2022/01/26 11:00:57;;;;;;;108.97;67.47;;;3.90;99.90;;;;;;5034758;28;90086;-31
2022/01/26 11:03:23;;;;;;;123.57;72.03;;;3.90;99.90;;;;;;5015622;28;90018;-31
2022/01/26 11:05:49;;;;;;;111.13;72.13;;;3.90;99.90;;;;;;5016852;28;87968;-29
2022/01/26 11:08:16;;;;;;;127.40;74.63;;;3.90;99.90;;;;;;5033374;28;88040;-35
2022/01/26 11:10:45;;;;;;;106.90;71.82;;;3.90;99.90;;;;;;5034131;28;89304;-30
2022/01/26 11:13:26;;;;;;;117.30;74.47;;;4.00;99.90;;;;;;5033834;28;89252;-32
2022/01/26 11:15:52;;;;;;;118.22;73.68;;;4.00;99.90;;;;;;5032541;28;90008;-32
2022/01/26 11:18:27;;;;;;;104.10;68.38;;;4.00;99.90;;;;;;5033801;28;88181;-30
2022/01/26 11:20:54;;;;;;;116.15;70.03;;;4.00;99.90;;;;;;5034196;28;88923;-31
2022/01/26 11:23:32;;;;;;;119.28;68.43;;;4.00;99.90;;;;;;5033807;28;88829;-31
2022/01/26 11:25:58;;;;;;;101.57;66.38;;;4.00;99.90;;;;;;5033868;28;89718;-30
2022/01/26 11:28:25;;;;;;;108.43;67.85;;;4.10;99.90;;;;;;5033995;28;87520;-31
2022/01/26 11:30:55;;;;;;;106.97;66.43;;;4.10;99.90;;;;;;5032185;28;90172;-32
2022/01/26 11:33:25;;;;;;;105.10;65.85;;;4.10;99.90;;;;;;5033330;28;89482;-31
2022/01/26 11:35:52;;;;;;;106.25;66.20;;;4.10;99.90;;;;;;5033822;28;90318;-33
2022/01/26 11:46:33;;;;;;;101.82;63.45;;;4.10;99.90;;;;;;5056737;22;90808;-30
2022/01/26 11:49:11;;;;;;;103.57;63.67;;;4.10;99.90;;;;;;5074646;27;87559;-32
2022/01/26 11:51:43;;;;;;;109.00;62.20;;;4.20;99.90;;;;;;5074379;27;90835;-29
2022/01/26 11:54:15;;;;;;;99.47;62.90;;;4.20;99.90;;;;;;5073904;27;89659;-29
2022/01/26 11:57:05;;;;;;;115.10;64.50;;;4.10;99.90;;;;;;5074112;27;89395;-33
2022/01/26 11:59:34;;;;;;;97.53;62.55;;;4.10;99.90;;;;;;5055357;27;88713;-33
2022/01/26 12:02:14;;;;;;;100.30;57.58;;;4.20;99.90;;;;;;5074437;27;90157;-31
2022/01/26 12:04:40;;;;;;;91.75;59.22;;;4.20;99.90;;;;;;5074358;27;89985;-32
2022/01/26 12:07:23;;;;;;;93.82;61.58;;;4.20;99.90;;;;;;5074263;27;89599;-30
2022/01/26 12:09:49;;;;;;;96.13;57.65;;;4.30;99.90;;;;;;5074465;27;87591;-29
2022/01/26 12:12:19;;;;;;;94.75;57.83;;;4.30;99.90;;;;;;5073653;27;90447;-32
2022/01/26 12:15:05;;;;;;;99.53;59.38;;;4.30;99.90;;;;;;5073989;27;89849;-31
2022/01/26 12:17:36;;;;;;;96.10;58.05;;;4.30;99.90;;;;;;5073891;27;89598;-33
2022/01/26 12:34:37;;;;;;;93.07;57.33;;;4.30;99.90;;;;;;5073630;27;89624;-29
2022/01/26 12:37:20;;;;;;;86.32;54.92;;;4.30;99.90;;;;;;5055244;27;90017;-32
2022/01/26 12:45:23;;;;;;;96.13;59.20;;;4.40;99.90;;;;;;5077404;27;90080;-33
2022/01/26 12:47:54;;;;;;;93.03;56.40;;;4.30;99.90;;;;;;5076809;27;89853;-30
2022/01/26 12:50:21;;;;;;;95.50;55.75;;;4.40;99.90;;;;;;5077004;27;89674;-29
2022/01/26 12:52:50;;;;;;;87.63;51.15;;;4.40;99.90;;;;;;5076729;27;89328;-30
2022/01/26 12:55:24;;;;;;;82.20;52.45;;;4.40;99.90;;;;;;5076850;27;89109;-31
2022/01/26 12:57:50;;;;;;;78.43;51.28;;;4.40;99.90;;;;;;5076916;27;89643;-32
2022/01/26 13:00:17;;;;;;;94.35;56.25;;;4.40;99.90;;;;;;5077140;27;88579;-32
2022/01/26 13:02:43;;;;;;;77.55;50.05;;;4.40;99.90;;;;;;5076560;27;87791;-32
2022/01/26 13:05:10;;;;;;;92.82;52.78;;;4.50;99.90;;;;;;5077263;27;89195;-32
2022/01/26 13:07:36;;;;;;;81.95;50.03;;;4.50;99.90;;;;;;5076981;27;90137;-31
2022/01/26 13:10:13;;;;;;;85.75;51.47;;;4.50;99.90;;;;;;5077000;27;89395;-30
2022/01/26 13:12:38;;;;;;;76.07;48.13;;;4.60;99.90;;;;;;5076907;27;88238;-30
2022/01/26 13:15:26;;;;;;;89.85;50.63;;;4.60;99.90;;;;;;5076810;27;90186;-30
2022/01/26 13:18:05;;;;;;;88.25;49.53;;;4.60;99.90;;;;;;5075935;27;91287;-29
2022/01/26 13:23:26;;;;;;;72.30;43.72;;;4.60;99.90;;;;;;5076859;27;88960;-32
2022/01/26 13:36:01;;;;;;;74.20;49.00;;;4.50;99.90;;;;;;5076505;27;90263;-31
2022/01/26 13:38:48;;;;;;;74.10;41.47;;;4.50;99.90;;;;;;5076337;27;89726;-33
2022/01/26 13:41:27;;;;;;;66.50;40.67;;;4.60;99.90;;;;;;5076297;27;88632;-32
2022/01/26 13:47:01;;;;;;;67.40;44.75;;;4.70;99.90;;;;;;5075854;27;89994;-31
2022/01/26 13:57:44;;;;;;;85.35;45.90;;;4.70;99.90;;;;;;5076247;27;88922;-31
2022/01/26 14:00:13;;;;;;;79.18;46.30;;;4.70;99.90;;;;;;5075846;27;89725;-31
2022/01/26 14:02:39;;;;;;;77.47;45.95;;;4.70;99.90;;;;;;5075896;27;88921;-32
2022/01/26 14:05:06;;;;;;;79.35;48.50;;;4.70;99.90;;;;;;5076328;27;87553;-30
2022/01/26 14:07:31;;;;;;;73.75;46.20;;;4.70;99.90;;;;;;5075782;27;91144;-31
2022/01/26 14:09:57;;;;;;;74.72;45.67;;;4.70;99.90;;;;;;5075538;27;90765;-29
2022/01/26 14:12:28;;;;;;;72.07;46.00;;;4.70;99.90;;;;;;5075718;27;90178;-37
2022/01/26 14:14:56;;;;;;;72.40;46.28;;;4.70;99.90;;;;;;5075906;27;87978;-30
2022/01/26 14:17:42;;;;;;;75.13;47.25;;;4.80;99.90;;;;;;5075678;27;90554;-31
2022/01/26 14:23:42;;;;;;;80.20;47.58;;;4.80;99.90;;;;;;5018766;27;89656;-31
2022/01/26 14:26:06;;;;;;;75.43;45.90;;;4.70;99.90;;;;;;5075950;27;87630;-29
2022/01/26 14:28:36;;;;;;;64.70;42.92;;;4.70;99.90;;;;;;5075394;27;90305;-31
2022/01/26 14:55:26;;;;;;;71.93;46.00;;;4.80;99.90;;;;;;5043150;27;99014;-33
2022/01/26 15:31:13;;;;;;;67.13;43.38;;;4.80;99.90;;;;;;5073648;27;88360;-30
2022/01/26 15:33:35;;;;;;;68.85;43.65;;;4.70;99.90;;;;;;5073535;27;90644;-31
2022/01/26 15:52:12;;;;;;;68.35;43.13;;;4.70;99.90;;;;;;5070084;27;87726;-30
2022/01/26 15:57:54;;;;;;;70.82;42.65;;;4.80;99.90;;;;;;5073415;27;90787;-34
2022/01/26 16:06:03;;;;;;;63.58;42.92;;;4.80;99.90;;;;;;5073385;27;90123;-31
2022/01/26 16:08:35;;;;;;;65.53;44.08;;;4.90;99.90;;;;;;5069866;27;89758;-29
2022/01/26 16:17:00;;;;;;;67.15;42.78;;;4.80;99.90;;;;;;5091869;27;90147;-31
2022/01/26 16:35:49;;;;;;;68.93;41.53;;;4.80;99.90;;;;;;5050485;27;88151;-31
2022/01/26 17:03:21;;;;;;;66.45;43.83;;;4.80;99.90;;;;;;5049750;27;89554;-31
2022/01/26 17:34:30;;;;;;;73.82;43.65;;;4.90;99.90;;;;;;5053564;27;89519;-32
2022/01/26 18:15:18;;;;;;;71.25;44.80;;;5.00;99.90;;;;;;5052548;27;88004;-30
2022/01/26 18:49:21;;;;;;;68.75;44.53;;;5.00;99.90;;;;;;5095426;27;90126;-32
2022/01/26 18:51:52;;;;;;;65.85;43.90;;;5.00;99.90;;;;;;5095394;27;89857;-32
2022/01/26 18:54:19;;;;;;;76.65;44.38;;;5.00;99.90;;;;;;5095654;27;89898;-31
2022/01/26 18:56:46;;;;;;;57.72;40.30;;;5.00;99.90;;;;;;5096377;27;87904;-31
2022/01/26 18:59:14;;;;;;;64.17;39.47;;;5.00;99.90;;;;;;5095751;27;88939;-37
2022/01/26 19:01:40;;;;;;;71.00;41.70;;;5.10;99.90;;;;;;5095641;27;90577;-31
2022/01/26 19:04:06;;;;;;;61.13;40.60;;;5.10;99.90;;;;;;5095380;27;89855;-30
2022/01/26 19:06:32;;;;;;;60.90;39.65;;;5.10;99.90;;;;;;5094679;27;88395;-34
2022/01/26 19:08:57;;;;;;;66.53;42.55;;;5.20;99.90;;;;;;5095793;27;90463;-33